Time;durP1;ratioP1;P1;durP2;ratioP2;P2;SDS_P1;SDS_P2;PMS_P1;PMS_P2;Temp;Humidity;BMP_temperature;BMP_pressure;BME280_temperature;BME280_humidity;BME280_pressure;Samples;Min_cycle;Max_cycle;Signal;HPM_P1;HPM_P2
2023/08/08 00:00:44;;;;;;;11.55;4.63;;;12.90;99.90;;;;;;6195847;23;20035;-69
2023/08/08 00:03:10;;;;;;;13.05;3.90;;;12.90;99.90;;;;;;6196950;23;20004;-69
2023/08/08 00:05:35;;;;;;;14.32;4.60;;;12.90;99.90;;;;;;6194461;23;20008;-69
2023/08/08 00:08:01;;;;;;;14.75;5.45;;;12.80;99.90;;;;;;6196280;23;20032;-69
2023/08/08 00:10:26;;;;;;;14.32;5.97;;;12.80;99.90;;;;;;6196294;23;20396;-69
2023/08/08 00:12:52;;;;;;;14.38;6.38;;;12.80;99.90;;;;;;6197085;23;20008;-69
2023/08/08 00:15:17;;;;;;;14.55;7.30;;;12.80;99.90;;;;;;6195726;23;20000;-69
2023/08/08 00:17:43;;;;;;;18.88;8.93;;;12.70;99.90;;;;;;6196401;23;20044;-69
2023/08/08 00:20:09;;;;;;;22.00;12.25;;;12.70;99.90;;;;;;6194475;23;20054;-69
2023/08/08 00:22:35;;;;;;;20.80;12.55;;;12.70;99.90;;;;;;6195787;23;20103;-69
2023/08/08 00:25:01;;;;;;;29.52;12.95;;;12.70;99.90;;;;;;6192881;23;20004;-69
2023/08/08 00:27:26;;;;;;;22.35;13.60;;;12.60;99.90;;;;;;6192458;23;20015;-69
2023/08/08 00:29:53;;;;;;;22.48;13.85;;;12.60;99.90;;;;;;6182465;23;20008;-69
2023/08/08 00:32:19;;;;;;;28.13;13.32;;;12.60;99.90;;;;;;6196388;23;20080;-69
2023/08/08 00:34:44;;;;;;;21.60;12.90;;;12.60;99.90;;;;;;6194700;23;20008;-69
2023/08/08 00:37:10;;;;;;;18.70;10.65;;;12.60;99.90;;;;;;6196618;23;20333;-69
2023/08/08 00:39:36;;;;;;;20.38;9.80;;;12.60;99.90;;;;;;6168725;23;20019;-69
2023/08/08 00:42:02;;;;;;;18.95;8.65;;;12.60;99.90;;;;;;6196210;23;20016;-69
2023/08/08 00:44:27;;;;;;;16.75;7.68;;;12.60;99.90;;;;;;6195602;23;20476;-70
2023/08/08 00:46:53;;;;;;;17.27;7.50;;;12.50;99.90;;;;;;6195778;23;19997;-71
2023/08/08 00:49:19;;;;;;;16.20;8.10;;;12.50;99.90;;;;;;6167730;23;20005;-70
2023/08/08 00:51:45;;;;;;;17.15;9.32;;;12.50;99.90;;;;;;6195793;23;20456;-70
2023/08/08 00:54:11;;;;;;;21.63;8.88;;;12.50;99.90;;;;;;6168899;23;20017;-70
2023/08/08 00:56:37;;;;;;;13.25;7.50;;;12.40;99.90;;;;;;6192813;23;20034;-71
2023/08/08 00:59:03;;;;;;;8.52;4.57;;;12.40;99.90;;;;;;6191306;23;20005;-70
2023/08/08 01:01:29;;;;;;;6.75;3.17;;;12.40;99.90;;;;;;6191478;23;20518;-70
2023/08/08 01:03:55;;;;;;;10.10;2.33;;;12.50;99.90;;;;;;6161870;23;20012;-71
2023/08/08 01:06:41;;;;;;;8.55;2.22;;;12.60;99.90;;;;;;6190345;23;20005;-70
2023/08/08 01:09:23;;;;;;;7.50;1.95;;;12.60;99.90;;;;;;6195184;23;20099;-70
2023/08/08 01:11:49;;;;;;;8.38;1.92;;;12.70;99.90;;;;;;6195211;23;20004;-71
2023/08/08 01:14:18;;;;;;;5.72;2.25;;;12.70;99.90;;;;;;6167556;23;20020;-71
2023/08/08 01:16:44;;;;;;;8.93;2.10;;;12.80;99.90;;;;;;6196935;23;20005;-70
2023/08/08 01:19:17;;;;;;;6.57;1.73;;;12.80;99.90;;;;;;6195043;23;20004;-71
2023/08/08 01:21:45;;;;;;;7.38;1.98;;;12.80;99.90;;;;;;6195676;23;20329;-70
2023/08/08 01:24:32;;;;;;;4.85;1.70;;;12.90;99.90;;;;;;6195009;23;20175;-70
2023/08/08 01:26:59;;;;;;;5.35;1.63;;;12.90;99.90;;;;;;6196978;23;20395;-70
2023/08/08 01:29:26;;;;;;;5.38;1.73;;;12.80;99.90;;;;;;6194567;23;20008;-70
2023/08/08 01:31:51;;;;;;;2.72;1.52;;;12.80;99.90;;;;;;6196667;23;20348;-71
2023/08/08 01:34:17;;;;;;;4.63;1.75;;;12.80;99.90;;;;;;6190833;23;20000;-70
2023/08/08 01:36:52;;;;;;;5.75;2.80;;;12.70;99.90;;;;;;6192667;23;20370;-70
2023/08/08 01:39:25;;;;;;;9.27;4.50;;;12.70;99.90;;;;;;6193875;23;20032;-71
2023/08/08 01:41:52;;;;;;;9.82;5.70;;;12.70;99.90;;;;;;6196288;23;20455;-70
2023/08/08 01:44:18;;;;;;;9.95;5.43;;;12.80;99.90;;;;;;6194649;23;20013;-71
2023/08/08 01:46:44;;;;;;;11.10;5.15;;;12.70;99.90;;;;;;6194363;23;20031;-71
2023/08/08 01:49:09;;;;;;;12.95;4.95;;;12.70;99.90;;;;;;6190143;23;20424;-71
2023/08/08 01:51:35;;;;;;;9.60;5.03;;;12.70;99.90;;;;;;6192807;23;20424;-69
2023/08/08 01:54:00;;;;;;;10.70;5.07;;;12.70;99.90;;;;;;6190790;23;20497;-69
2023/08/08 01:56:26;;;;;;;10.40;6.03;;;12.70;99.90;;;;;;6191904;23;20425;-69
2023/08/08 01:58:51;;;;;;;8.57;5.03;;;12.70;99.90;;;;;;6188863;23;20121;-70
2023/08/08 02:01:17;;;;;;;10.55;5.32;;;12.80;99.90;;;;;;6160376;23;20448;-69
2023/08/08 02:03:43;;;;;;;12.93;5.30;;;12.80;99.90;;;;;;6190836;23;20375;-69
2023/08/08 02:06:08;;;;;;;9.32;5.45;;;12.80;99.90;;;;;;6192260;23;20083;-70
2023/08/08 02:08:34;;;;;;;10.45;6.15;;;12.80;99.90;;;;;;6192048;23;20004;-69
2023/08/08 02:10:59;;;;;;;11.18;5.95;;;12.80;99.90;;;;;;6192389;23;20008;-69
2023/08/08 02:13:25;;;;;;;11.70;5.63;;;12.70;99.90;;;;;;6190526;23;20035;-69
2023/08/08 02:15:52;;;;;;;9.25;5.10;;;12.70;99.90;;;;;;6195175;23;20012;-69
2023/08/08 02:18:18;;;;;;;7.63;5.03;;;12.60;99.90;;;;;;6197336;23;20016;-69
2023/08/08 02:20:43;;;;;;;10.05;5.32;;;12.60;99.90;;;;;;6196304;23;20032;-70
2023/08/08 02:23:09;;;;;;;10.98;5.45;;;12.50;99.90;;;;;;6196831;23;20433;-70
2023/08/08 02:25:35;;;;;;;15.05;6.50;;;12.50;99.90;;;;;;6193982;23;20521;-69
2023/08/08 02:28:00;;;;;;;12.23;6.25;;;12.40;99.90;;;;;;6193774;23;20495;-69
2023/08/08 02:30:26;;;;;;;9.70;5.25;;;12.30;99.90;;;;;;6192686;23;20014;-70
2023/08/08 02:32:52;;;;;;;8.68;4.43;;;12.20;99.90;;;;;;6167978;23;20008;-70
2023/08/08 02:35:19;;;;;;;4.22;2.33;;;12.20;99.90;;;;;;6194767;23;20079;-69
2023/08/08 02:37:44;;;;;;;4.78;2.20;;;12.10;99.90;;;;;;6197145;23;20017;-70
2023/08/08 02:40:10;;;;;;;3.97;1.58;;;12.10;99.90;;;;;;6197000;23;20015;-69
2023/08/08 02:42:36;;;;;;;2.53;1.30;;;12.00;99.90;;;;;;6183365;23;20025;-69
2023/08/08 02:45:01;;;;;;;4.72;1.80;;;12.00;99.90;;;;;;6197145;23;20059;-70
2023/08/08 02:47:27;;;;;;;2.95;1.80;;;12.00;99.90;;;;;;6171828;23;20498;-70
2023/08/08 02:49:53;;;;;;;6.50;2.55;;;11.90;99.90;;;;;;6195682;23;20015;-69
2023/08/08 02:52:18;;;;;;;4.70;3.10;;;11.90;99.90;;;;;;6197310;23;20115;-70
2023/08/08 02:54:44;;;;;;;6.00;3.30;;;11.90;99.90;;;;;;6196956;23;20055;-71
2023/08/08 02:57:12;;;;;;;9.52;4.43;;;11.90;99.90;;;;;;6197642;23;20016;-71
2023/08/08 02:59:38;;;;;;;9.55;4.68;;;11.90;99.90;;;;;;6195812;23;20377;-71
2023/08/08 03:02:04;;;;;;;9.57;5.00;;;11.80;99.90;;;;;;6197280;23;20489;-71
2023/08/08 03:04:30;;;;;;;12.63;5.10;;;11.80;99.90;;;;;;6166592;23;20028;-71
2023/08/08 03:06:56;;;;;;;10.32;6.18;;;11.80;99.90;;;;;;6196328;23;20045;-71
2023/08/08 03:09:21;;;;;;;12.43;7.55;;;11.70;99.90;;;;;;6195205;23;20009;-71
2023/08/08 03:11:47;;;;;;;12.77;6.82;;;11.70;99.90;;;;;;6196406;23;20076;-71
2023/08/08 03:14:13;;;;;;;10.85;7.18;;;11.70;99.90;;;;;;6194311;23;20043;-71
2023/08/08 03:16:39;;;;;;;11.07;6.82;;;11.70;99.90;;;;;;6196188;23;20008;-71
2023/08/08 03:19:05;;;;;;;10.65;6.38;;;11.70;99.90;;;;;;6195179;23;20009;-71
2023/08/08 03:21:30;;;;;;;8.30;5.65;;;11.70;99.90;;;;;;6196075;23;20017;-71
2023/08/08 03:23:57;;;;;;;9.68;5.18;;;11.70;99.90;;;;;;6195894;23;20098;-71
2023/08/08 03:26:23;;;;;;;9.15;4.72;;;11.80;99.90;;;;;;6196090;23;20385;-71
2023/08/08 03:28:53;;;;;;;7.25;3.60;;;11.80;99.90;;;;;;6194722;23;20083;-71
2023/08/08 03:31:20;;;;;;;6.03;3.28;;;11.80;99.90;;;;;;6193764;23;20490;-70
2023/08/08 03:33:45;;;;;;;4.22;2.22;;;11.80;99.90;;;;;;6193185;23;20441;-71
2023/08/08 03:36:11;;;;;;;5.18;2.10;;;11.80;99.90;;;;;;6194971;23;20007;-71
2023/08/08 03:38:37;;;;;;;5.00;1.65;;;11.70;99.90;;;;;;6194519;23;20084;-71
2023/08/08 03:41:04;;;;;;;3.45;1.70;;;11.70;99.90;;;;;;6194943;23;20008;-71
2023/08/08 03:43:29;;;;;;;5.78;1.90;;;11.60;99.90;;;;;;6193226;23;20016;-71
2023/08/08 03:45:55;;;;;;;3.67;1.52;;;11.60;99.90;;;;;;6191030;23;20145;-71
2023/08/08 03:48:21;;;;;;;4.05;1.60;;;11.50;99.90;;;;;;6191705;23;20005;-70
2023/08/08 03:50:46;;;;;;;3.47;1.60;;;11.50;99.90;;;;;;6190114;23;20373;-70
2023/08/08 03:53:12;;;;;;;4.00;1.70;;;11.40;99.90;;;;;;6191851;23;20639;-70
2023/08/08 03:55:38;;;;;;;2.45;1.10;;;11.40;99.90;;;;;;6164455;23;20012;-70
2023/08/08 03:58:05;;;;;;;3.03;1.30;;;11.40;99.90;;;;;;6189767;23;20015;-70
2023/08/08 04:00:31;;;;;;;5.68;1.58;;;11.40;99.90;;;;;;6188097;23;20067;-70
2023/08/08 04:02:56;;;;;;;3.92;1.40;;;11.40;99.90;;;;;;6164505;23;20016;-70
2023/08/08 04:05:22;;;;;;;6.25;1.30;;;11.40;99.90;;;;;;6190164;23;20461;-70
2023/08/08 04:07:48;;;;;;;3.58;1.33;;;11.40;99.90;;;;;;6191606;23;20009;-70
2023/08/08 04:10:13;;;;;;;4.15;1.70;;;11.40;99.90;;;;;;6191030;23;20408;-70
2023/08/08 04:12:39;;;;;;;3.20;1.45;;;11.40;99.90;;;;;;6189530;23;20047;-70
2023/08/08 04:15:05;;;;;;;4.10;1.20;;;11.40;99.90;;;;;;6188499;23;20024;-70
2023/08/08 04:17:30;;;;;;;2.30;1.50;;;11.40;99.90;;;;;;6189800;23;20295;-70
2023/08/08 04:19:56;;;;;;;3.65;1.42;;;11.40;99.90;;;;;;6161029;23;20012;-70
2023/08/08 04:22:22;;;;;;;4.70;1.40;;;11.30;99.90;;;;;;6191425;23;20430;-70
2023/08/08 04:24:48;;;;;;;4.78;1.70;;;11.30;99.90;;;;;;6164268;23;20099;-70
2023/08/08 04:27:13;;;;;;;3.35;1.13;;;11.20;99.90;;;;;;6191872;23;20064;-70
2023/08/08 04:29:39;;;;;;;3.40;1.35;;;11.20;99.90;;;;;;6190544;23;20031;-70
2023/08/08 04:32:05;;;;;;;3.92;1.70;;;11.20;99.90;;;;;;6191437;23;20048;-70
2023/08/08 04:34:30;;;;;;;3.95;1.88;;;11.20;99.90;;;;;;6189303;23;20059;-70
2023/08/08 04:36:56;;;;;;;4.50;1.65;;;11.30;99.90;;;;;;6191301;23;20316;-70
2023/08/08 04:39:22;;;;;;;4.22;1.50;;;11.30;99.90;;;;;;6191330;23;20006;-70
2023/08/08 04:41:47;;;;;;;3.53;1.40;;;11.40;99.90;;;;;;6190653;23;20008;-70
2023/08/08 04:44:13;;;;;;;2.97;1.30;;;11.50;99.90;;;;;;6189239;23;20004;-70
2023/08/08 04:46:38;;;;;;;6.72;1.75;;;11.70;99.90;;;;;;6190717;23;20001;-70
2023/08/08 04:49:04;;;;;;;6.68;1.90;;;11.80;99.90;;;;;;6190055;23;20032;-69
2023/08/08 04:51:29;;;;;;;5.88;2.10;;;11.90;99.90;;;;;;6190304;23;20017;-70
2023/08/08 04:53:55;;;;;;;5.60;1.90;;;12.10;99.90;;;;;;6190521;23;20329;-70
2023/08/08 04:56:21;;;;;;;7.75;2.92;;;12.20;99.90;;;;;;6192987;23;20027;-70
2023/08/08 04:58:46;;;;;;;8.45;4.25;;;12.40;99.90;;;;;;6163894;23;20024;-69
2023/08/08 05:01:14;;;;;;;15.05;8.32;;;12.50;99.90;;;;;;6190365;23;20428;-70
2023/08/08 05:03:40;;;;;;;14.30;8.65;;;12.60;99.90;;;;;;6189407;23;20004;-70
2023/08/08 05:06:06;;;;;;;15.55;8.88;;;12.70;99.90;;;;;;6190537;23;20019;-69
2023/08/08 05:08:31;;;;;;;15.07;9.35;;;12.80;99.90;;;;;;6191601;23;20082;-70
2023/08/08 05:10:57;;;;;;;14.70;9.70;;;12.90;99.90;;;;;;6191650;23;20005;-70
2023/08/08 05:13:22;;;;;;;13.38;8.80;;;13.00;99.90;;;;;;6191911;23;20050;-70
2023/08/08 05:15:48;;;;;;;13.43;8.20;;;13.00;99.90;;;;;;6191704;23;20012;-71
2023/08/08 05:18:14;;;;;;;12.20;7.18;;;13.10;99.90;;;;;;6191449;23;20123;-70
2023/08/08 05:20:39;;;;;;;9.05;5.68;;;13.20;99.90;;;;;;6189850;23;20004;-69
2023/08/08 05:23:05;;;;;;;9.13;6.45;;;13.30;99.90;;;;;;6195064;23;20385;-70
2023/08/08 05:25:31;;;;;;;13.98;7.80;;;13.30;99.90;;;;;;6193011;23;20012;-69
2023/08/08 05:27:56;;;;;;;15.43;8.07;;;13.30;99.90;;;;;;6193030;23;20008;-70
2023/08/08 05:30:22;;;;;;;12.45;7.32;;;13.50;99.90;;;;;;6191491;23;20004;-70
2023/08/08 05:32:48;;;;;;;9.82;5.90;;;13.60;99.90;;;;;;6196810;23;20021;-70
2023/08/08 05:35:14;;;;;;;5.65;3.78;;;13.70;99.90;;;;;;6194688;23;20008;-70
2023/08/08 05:37:39;;;;;;;5.97;2.70;;;13.90;99.90;;;;;;6196477;23;20446;-70
2023/08/08 05:40:06;;;;;;;3.45;1.50;;;14.10;99.90;;;;;;6191794;23;20071;-70
2023/08/08 05:42:32;;;;;;;4.82;1.63;;;14.30;99.90;;;;;;6190805;23;20386;-70
2023/08/08 05:44:58;;;;;;;4.57;1.23;;;14.50;99.90;;;;;;6191370;23;20009;-70
2023/08/08 05:47:24;;;;;;;4.20;1.10;;;14.70;99.90;;;;;;6193064;23;20404;-70
2023/08/08 05:49:49;;;;;;;3.00;0.93;;;14.70;99.90;;;;;;6190423;23;20004;-70
2023/08/08 05:52:15;;;;;;;2.75;1.10;;;14.70;99.90;;;;;;6193533;23;20281;-70
2023/08/08 05:54:41;;;;;;;2.38;1.00;;;14.80;99.90;;;;;;6194706;23;20004;-70
2023/08/08 05:57:06;;;;;;;3.03;1.20;;;14.90;99.90;;;;;;6194497;23;20012;-70
2023/08/08 05:59:32;;;;;;;2.50;1.02;;;15.10;99.90;;;;;;6193928;23;20005;-70
2023/08/08 06:01:58;;;;;;;2.20;1.00;;;15.20;99.90;;;;;;6194670;23;20357;-70
2023/08/08 06:04:24;;;;;;;3.13;1.00;;;15.30;99.90;;;;;;6192853;23;20017;-70
2023/08/08 06:06:50;;;;;;;50.97;27.55;;;15.40;99.90;;;;;;6195144;23;20042;-70
2023/08/08 06:09:16;;;;;;;7.28;3.38;;;15.40;99.90;;;;;;6192871;23;20399;-70
2023/08/08 06:11:42;;;;;;;2.55;1.10;;;15.60;99.90;;;;;;6192424;23;20409;-70
2023/08/08 06:14:08;;;;;;;2.78;1.20;;;15.70;99.90;;;;;;6194165;23;20016;-70
2023/08/08 06:16:33;;;;;;;3.08;1.33;;;15.90;99.90;;;;;;6197515;23;20012;-70
2023/08/08 06:18:59;;;;;;;4.45;1.05;;;16.00;99.90;;;;;;6197975;23;20082;-70
2023/08/08 06:21:25;;;;;;;2.45;1.10;;;16.00;99.90;;;;;;6197381;23;20057;-70
2023/08/08 06:23:53;;;;;;;2.78;1.33;;;15.90;99.90;;;;;;6194836;23;20012;-70
2023/08/08 06:26:18;;;;;;;10.50;6.47;;;15.70;99.90;;;;;;6193209;23;20005;-70
2023/08/08 06:28:44;;;;;;;7.13;4.20;;;15.50;99.90;;;;;;6192240;23;20374;-70
2023/08/08 06:31:09;;;;;;;2.53;1.20;;;15.50;99.90;;;;;;6190992;23;20031;-70
2023/08/08 06:33:35;;;;;;;3.15;1.42;;;15.60;99.90;;;;;;6196004;23;20351;-70
2023/08/08 06:36:03;;;;;;;4.70;1.30;;;15.90;99.90;;;;;;6194402;23;20420;-70
2023/08/08 06:38:28;;;;;;;2.00;1.05;;;16.30;99.90;;;;;;6192969;23;20196;-70
2023/08/08 06:40:56;;;;;;;3.92;1.20;;;16.70;99.90;;;;;;6194404;23;20429;-70
2023/08/08 06:43:21;;;;;;;3.17;1.20;;;17.00;99.90;;;;;;6191779;23;20023;-70
2023/08/08 06:45:47;;;;;;;6.55;2.53;;;17.30;99.90;;;;;;6190262;23;20013;-70
2023/08/08 06:48:13;;;;;;;2.60;1.13;;;17.50;99.90;;;;;;6191693;23;20012;-70
2023/08/08 06:50:38;;;;;;;4.70;1.80;;;17.80;99.90;;;;;;6164584;23;20019;-70
2023/08/08 06:53:05;;;;;;;2.55;0.98;;;18.10;99.90;;;;;;6166847;23;20016;-70
2023/08/08 06:55:31;;;;;;;2.67;0.93;;;18.50;99.90;;;;;;6189472;23;20703;-70
2023/08/08 06:57:56;;;;;;;22.15;12.15;;;18.60;99.90;;;;;;6191276;23;20114;-70
2023/08/08 07:00:22;;;;;;;5.28;1.35;;;18.70;99.90;;;;;;6189166;23;20031;-70
2023/08/08 07:02:47;;;;;;;2.28;0.90;;;18.60;99.90;;;;;;6190792;23;20379;-70
2023/08/08 07:05:13;;;;;;;1.75;0.90;;;18.50;99.90;;;;;;6191836;23;20302;-70
2023/08/08 07:07:39;;;;;;;3.72;1.15;;;18.20;99.90;;;;;;6197602;23;20008;-70
2023/08/08 07:10:06;;;;;;;4.88;1.30;;;18.00;99.90;;;;;;6197199;23;20008;-70
2023/08/08 07:12:32;;;;;;;2.55;1.05;;;17.90;99.90;;;;;;6167648;23;20023;-70
2023/08/08 07:14:57;;;;;;;2.15;1.17;;;17.90;99.90;;;;;;6197782;23;20009;-70
2023/08/08 07:17:23;;;;;;;3.67;1.35;;;17.90;99.90;;;;;;6196790;23;20382;-70
2023/08/08 07:19:48;;;;;;;4.13;1.10;;;18.10;99.90;;;;;;6190685;23;20040;-70
2023/08/08 07:22:14;;;;;;;3.05;1.20;;;18.10;99.90;;;;;;6168558;23;20249;-69
2023/08/08 07:24:40;;;;;;;3.25;1.10;;;18.20;99.90;;;;;;6194989;23;20444;-69
2023/08/08 07:27:06;;;;;;;2.33;1.20;;;18.30;99.90;;;;;;6197346;23;20009;-69
2023/08/08 07:29:31;;;;;;;4.82;0.82;;;18.30;99.90;;;;;;6170561;23;20494;-70
2023/08/08 07:31:57;;;;;;;1.95;0.82;;;18.20;99.90;;;;;;6196637;23;20387;-69
2023/08/08 07:34:24;;;;;;;1.73;0.88;;;18.10;99.90;;;;;;6195333;23;20009;-70
2023/08/08 07:36:50;;;;;;;1.83;0.93;;;18.10;99.90;;;;;;6195253;23;20425;-69
2023/08/08 07:39:16;;;;;;;3.63;1.00;;;18.50;99.90;;;;;;6197224;23;20111;-68
2023/08/08 07:41:41;;;;;;;4.32;1.23;;;18.50;99.90;;;;;;6196817;23;20010;-70
2023/08/08 07:44:07;;;;;;;2.35;1.00;;;18.70;99.90;;;;;;6197215;23;20408;-68
2023/08/08 07:46:33;;;;;;;4.60;1.20;;;19.00;99.90;;;;;;6196719;23;20005;-70
2023/08/08 07:49:03;;;;;;;4.20;1.05;;;19.20;99.90;;;;;;6195553;23;20061;-67
2023/08/08 07:51:28;;;;;;;2.88;1.05;;;19.40;99.90;;;;;;6196940;23;20005;-67
2023/08/08 07:53:54;;;;;;;3.35;1.13;;;19.40;99.90;;;;;;6196843;23;20020;-71
2023/08/08 07:56:20;;;;;;;4.38;1.40;;;19.10;99.90;;;;;;6196835;23;20004;-66
2023/08/08 07:58:45;;;;;;;1.88;1.00;;;18.90;99.90;;;;;;6196568;23;20060;-68
2023/08/08 08:01:11;;;;;;;3.28;1.20;;;18.70;99.90;;;;;;6193850;23;20000;-71
2023/08/08 08:03:37;;;;;;;3.35;1.10;;;18.60;99.90;;;;;;6187805;23;20012;-70
2023/08/08 08:06:03;;;;;;;3.03;1.50;;;18.50;99.90;;;;;;6189475;23;20008;-69
2023/08/08 08:08:29;;;;;;;3.03;1.30;;;18.30;99.90;;;;;;6192096;23;20392;-70
2023/08/08 08:10:54;;;;;;;6.53;1.27;;;18.30;99.90;;;;;;6191245;23;20119;-69
2023/08/08 08:13:20;;;;;;;5.63;1.20;;;18.30;99.90;;;;;;6194890;23;20009;-71
2023/08/08 08:15:46;;;;;;;3.85;1.13;;;18.30;99.90;;;;;;6189154;23;20325;-75
2023/08/08 08:18:12;;;;;;;3.17;1.20;;;18.30;99.90;;;;;;6189659;23;20081;-70
2023/08/08 08:20:39;;;;;;;4.93;1.10;;;18.40;99.90;;;;;;6190010;23;20141;-71
2023/08/08 08:23:04;;;;;;;3.33;1.05;;;18.50;99.90;;;;;;6163756;23;20016;-71
2023/08/08 08:25:31;;;;;;;3.95;1.35;;;18.60;99.90;;;;;;6192556;23;20376;-70
2023/08/08 08:27:57;;;;;;;5.13;1.10;;;18.70;99.90;;;;;;6191687;23;20004;-70
2023/08/08 08:30:25;;;;;;;3.55;1.17;;;18.80;99.90;;;;;;6192125;23;20255;-71
2023/08/08 08:32:51;;;;;;;3.55;1.23;;;19.10;99.90;;;;;;6164025;23;20035;-71
2023/08/08 08:35:17;;;;;;;2.88;1.10;;;19.50;99.90;;;;;;6190961;23;20091;-71
2023/08/08 08:37:43;;;;;;;3.55;1.10;;;19.90;99.90;;;;;;6191903;23;20340;-71
2023/08/08 08:40:10;;;;;;;4.28;1.00;;;20.20;99.90;;;;;;6191067;23;20000;-70
2023/08/08 08:42:36;;;;;;;3.47;1.00;;;20.40;99.90;;;;;;6191592;23;20322;-70
2023/08/08 08:45:04;;;;;;;2.97;1.10;;;20.50;99.90;;;;;;6165681;23;20008;-71
2023/08/08 08:47:31;;;;;;;4.72;1.00;;;20.50;99.90;;;;;;6193498;23;20063;-70
2023/08/08 08:49:57;;;;;;;4.47;1.23;;;20.50;99.90;;;;;;6192265;23;20071;-71
2023/08/08 08:52:23;;;;;;;4.20;1.00;;;20.50;99.90;;;;;;6193379;23;20111;-70
2023/08/08 08:54:51;;;;;;;3.25;1.00;;;20.30;99.90;;;;;;6190840;23;20001;-70
2023/08/08 08:57:16;;;;;;;2.08;1.00;;;20.40;99.90;;;;;;6193168;23;20096;-71
2023/08/08 08:59:42;;;;;;;3.28;1.00;;;20.50;99.90;;;;;;6192100;23;20152;-74
2023/08/08 09:02:08;;;;;;;3.65;1.13;;;20.50;99.90;;;;;;6192383;23;20055;-69
2023/08/08 09:04:37;;;;;;;4.63;1.13;;;20.40;99.90;;;;;;6165058;23;20179;-71
2023/08/08 09:07:06;;;;;;;2.78;1.00;;;20.10;99.90;;;;;;6192615;23;20402;-71
2023/08/08 09:09:32;;;;;;;4.68;1.13;;;19.80;99.90;;;;;;6193404;23;20532;-71
2023/08/08 09:11:58;;;;;;;2.90;1.10;;;19.60;99.90;;;;;;6192580;23;20336;-71
2023/08/08 09:14:25;;;;;;;2.20;1.13;;;19.50;99.90;;;;;;6191978;23;20075;-71
2023/08/08 09:16:53;;;;;;;3.88;1.20;;;19.70;99.90;;;;;;6197654;23;20000;-71
2023/08/08 09:19:19;;;;;;;2.65;0.80;;;19.90;99.90;;;;;;6195925;23;20035;-71
2023/08/08 09:21:45;;;;;;;5.80;1.20;;;20.30;99.90;;;;;;6168710;23;20436;-71
2023/08/08 09:24:11;;;;;;;1.60;0.90;;;20.80;99.90;;;;;;6188212;23;20396;-71
2023/08/08 09:26:38;;;;;;;3.15;1.20;;;21.00;99.90;;;;;;6161228;23;20535;-71
2023/08/08 09:29:04;;;;;;;7.63;1.10;;;21.30;99.90;;;;;;6183057;23;20584;-71
2023/08/08 09:31:31;;;;;;;4.57;1.23;;;21.50;99.90;;;;;;6162293;23;20472;-71
2023/08/08 09:33:58;;;;;;;3.42;1.20;;;21.70;99.90;;;;;;6188421;23;20011;-71
2023/08/08 09:36:25;;;;;;;5.05;1.17;;;22.00;99.90;;;;;;6190646;23;20197;-71
2023/08/08 09:38:52;;;;;;;4.47;1.58;;;22.20;99.90;;;;;;6167711;23;20344;-71
2023/08/08 09:41:17;;;;;;;3.83;1.10;;;22.40;99.90;;;;;;6195916;23;20412;-71
2023/08/08 09:43:44;;;;;;;4.55;1.25;;;22.50;99.90;;;;;;6196046;23;20024;-71
2023/08/08 09:46:10;;;;;;;4.50;1.40;;;22.50;99.90;;;;;;6195745;23;20039;-71
2023/08/08 09:48:38;;;;;;;4.63;1.35;;;22.30;99.90;;;;;;6168483;23;20095;-71
2023/08/08 09:51:05;;;;;;;3.20;1.30;;;22.00;99.90;;;;;;6169983;23;20104;-71
2023/08/08 09:53:32;;;;;;;4.63;1.15;;;21.80;99.90;;;;;;6196381;23;20074;-71
2023/08/08 09:55:58;;;;;;;5.05;1.10;;;21.20;99.90;;;;;;6196903;23;20031;-71
2023/08/08 09:58:24;;;;;;;5.43;1.40;;;20.70;99.90;;;;;;6169403;23;20016;-71
2023/08/08 10:00:50;;;;;;;5.55;1.30;;;20.50;99.90;;;;;;6195344;23;20340;-71
2023/08/08 10:03:19;;;;;;;3.40;0.95;;;20.30;99.90;;;;;;6167930;23;20314;-71
2023/08/08 10:05:46;;;;;;;3.78;0.95;;;20.20;99.90;;;;;;6164461;23;20012;-71
2023/08/08 10:08:15;;;;;;;3.42;1.10;;;20.00;99.90;;;;;;6168505;23;20013;-71
2023/08/08 10:10:42;;;;;;;3.42;1.38;;;20.00;99.90;;;;;;6194925;23;20001;-71
2023/08/08 10:13:08;;;;;;;2.08;1.00;;;19.90;99.90;;;;;;6169284;23;20016;-71
2023/08/08 10:15:38;;;;;;;3.92;1.02;;;20.00;99.90;;;;;;6195625;23;20527;-71
2023/08/08 10:18:04;;;;;;;2.05;0.93;;;20.10;99.90;;;;;;6195223;23;20009;-71
2023/08/08 10:20:34;;;;;;;2.45;1.20;;;20.20;99.90;;;;;;6194139;23;21001;-71
2023/08/08 10:23:00;;;;;;;2.83;1.15;;;20.70;99.90;;;;;;6193326;23;20027;-71
2023/08/08 10:25:28;;;;;;;4.18;1.20;;;21.70;99.90;;;;;;6187144;23;20083;-71
2023/08/08 10:28:14;;;;;;;3.60;1.10;;;22.80;99.90;;;;;;6192528;23;20032;-71
2023/08/08 10:30:59;;;;;;;3.38;1.20;;;23.80;99.90;;;;;;6193548;23;20546;-71
2023/08/08 10:33:39;;;;;;;4.38;1.20;;;24.60;99.90;;;;;;6193246;23;20005;-71
2023/08/08 10:36:06;;;;;;;3.90;1.52;;;24.50;99.90;;;;;;6193307;23;20324;-71
2023/08/08 10:38:54;;;;;;;3.72;1.40;;;23.40;99.90;;;;;;6191535;23;20437;-71
2023/08/08 10:41:21;;;;;;;2.63;1.23;;;22.00;99.90;;;;;;6168053;23;20032;-71
2023/08/08 10:43:53;;;;;;;1.67;1.00;;;20.90;99.90;;;;;;6195546;23;20610;-71
2023/08/08 10:46:29;;;;;;;2.90;0.90;;;20.40;99.90;;;;;;6193497;23;20056;-71
2023/08/08 10:49:00;;;;;;;2.50;1.20;;;20.40;99.90;;;;;;6167214;23;20040;-71
2023/08/08 10:51:39;;;;;;;4.43;1.92;;;20.30;99.90;;;;;;6198199;23;20058;-71
2023/08/08 10:54:07;;;;;;;5.22;1.90;;;20.50;99.90;;;;;;6197379;23;20020;-71
2023/08/08 10:56:35;;;;;;;5.70;2.30;;;20.60;99.90;;;;;;6197592;23;20080;-70
2023/08/08 10:59:14;;;;;;;5.13;2.08;;;20.70;99.90;;;;;;6196813;23;20440;-70
2023/08/08 11:01:40;;;;;;;3.25;1.60;;;20.60;99.90;;;;;;6197705;23;20119;-70
2023/08/08 11:04:06;;;;;;;3.70;1.60;;;20.60;99.90;;;;;;6195696;23;20072;-70
2023/08/08 11:06:34;;;;;;;7.63;1.60;;;20.40;99.90;;;;;;6169308;23;20001;-70
2023/08/08 11:09:01;;;;;;;4.28;1.25;;;19.70;99.90;;;;;;6169847;23;20341;-70
2023/08/08 11:11:26;;;;;;;3.55;1.33;;;19.30;99.90;;;;;;6197594;23;20341;-70
2023/08/08 11:13:52;;;;;;;3.47;1.50;;;19.10;99.90;;;;;;6197849;23;20443;-70
2023/08/08 11:16:19;;;;;;;4.13;1.20;;;18.90;99.90;;;;;;6198247;23;20420;-70
2023/08/08 11:18:45;;;;;;;4.20;1.48;;;18.90;99.90;;;;;;6169273;23;20020;-70
2023/08/08 11:21:11;;;;;;;6.60;1.48;;;19.00;99.90;;;;;;6198756;23;20004;-70
2023/08/08 11:23:38;;;;;;;4.95;1.00;;;19.20;99.90;;;;;;6195647;23;20318;-70
2023/08/08 11:26:04;;;;;;;5.97;1.10;;;18.90;99.90;;;;;;6182925;23;20004;-70
2023/08/08 11:28:30;;;;;;;6.15;1.33;;;18.40;99.90;;;;;;6167018;23;20017;-70
2023/08/08 11:30:55;;;;;;;4.82;1.40;;;18.20;99.90;;;;;;6195663;23;20565;-70
2023/08/08 11:33:22;;;;;;;4.95;1.10;;;18.20;99.90;;;;;;6187652;23;20012;-70
2023/08/08 11:35:49;;;;;;;7.00;1.20;;;18.50;99.90;;;;;;6195619;23;20012;-70
2023/08/08 11:38:15;;;;;;;4.38;1.10;;;18.80;99.90;;;;;;6184716;23;20066;-70
2023/08/08 11:40:42;;;;;;;6.15;1.00;;;19.00;99.90;;;;;;6169605;23;20001;-70
2023/08/08 11:43:08;;;;;;;5.55;1.13;;;19.10;99.90;;;;;;6155597;23;20190;-69
2023/08/08 11:45:34;;;;;;;3.72;1.25;;;19.30;99.90;;;;;;6166452;23;20088;-70
2023/08/08 11:48:01;;;;;;;7.57;1.30;;;19.60;99.90;;;;;;6169010;23;20013;-70
2023/08/08 11:50:28;;;;;;;4.82;1.65;;;20.00;99.90;;;;;;6167118;23;20964;-70
2023/08/08 11:52:54;;;;;;;5.63;1.65;;;20.70;99.90;;;;;;6166749;23;20020;-70
2023/08/08 11:55:22;;;;;;;2.95;1.02;;;20.90;99.90;;;;;;6168311;23;20001;-70
2023/08/08 11:57:49;;;;;;;10.60;1.95;;;20.90;99.90;;;;;;6167990;23;20480;-70
2023/08/08 12:00:15;;;;;;;3.15;0.98;;;20.60;99.90;;;;;;6167093;23;20064;-70
2023/08/08 12:02:42;;;;;;;4.43;1.02;;;20.20;99.90;;;;;;6168587;23;20005;-70
2023/08/08 12:05:11;;;;;;;6.32;1.40;;;20.20;99.90;;;;;;6167013;23;20596;-70
2023/08/08 12:07:41;;;;;;;4.68;1.27;;;19.80;99.90;;;;;;6139976;23;20838;-70
2023/08/08 12:10:15;;;;;;;7.70;1.20;;;19.70;99.90;;;;;;6166974;23;20010;-70
2023/08/08 12:12:41;;;;;;;4.88;1.05;;;19.40;99.90;;;;;;6139336;23;20092;-69
2023/08/08 12:15:11;;;;;;;7.93;1.48;;;19.30;99.90;;;;;;6167296;23;20011;-70
2023/08/08 12:17:37;;;;;;;4.90;1.00;;;19.40;99.90;;;;;;6139355;23;20272;-70
2023/08/08 12:20:09;;;;;;;6.47;1.13;;;19.90;99.90;;;;;;6163394;23;20258;-70
2023/08/08 12:22:35;;;;;;;9.27;1.48;;;19.90;99.90;;;;;;6166460;23;20020;-69
2023/08/08 12:25:02;;;;;;;5.65;1.10;;;20.10;99.90;;;;;;6137999;23;20024;-70
2023/08/08 12:27:29;;;;;;;6.97;1.30;;;20.00;99.90;;;;;;6165199;23;20742;-69
2023/08/08 12:29:54;;;;;;;6.15;1.30;;;20.20;99.90;;;;;;6164866;23;20080;-69
2023/08/08 12:32:23;;;;;;;3.50;1.05;;;20.30;99.90;;;;;;6163310;23;20191;-70
2023/08/08 12:34:49;;;;;;;4.22;1.02;;;20.40;99.90;;;;;;6165783;23;20641;-69
2023/08/08 12:37:15;;;;;;;4.18;1.08;;;19.90;99.90;;;;;;6163082;23;20001;-70
2023/08/08 12:39:41;;;;;;;3.97;0.93;;;19.90;99.90;;;;;;6137771;23;20017;-70
2023/08/08 12:42:06;;;;;;;5.85;1.17;;;19.50;99.90;;;;;;6172011;23;20017;-69